Time;durP1;ratioP1;P1;durP2;ratioP2;P2;SDS_P1;SDS_P2;PMS_P1;PMS_P2;Temp;Humidity;BMP_temperature;BMP_pressure;BME280_temperature;BME280_humidity;BME280_pressure;Samples;Min_cycle;Max_cycle;Signal;HPM_P1;HPM_P2
2023/05/23 00:01:07;;;;;;;32.45;21.52;;;13.60;99.90;;;;;;5075034;28;20482;-41
2023/05/23 00:03:33;;;;;;;35.30;21.67;;;13.60;99.90;;;;;;5071863;28;20551;-43
2023/05/23 00:06:00;;;;;;;47.47;22.40;;;13.60;99.90;;;;;;5074488;28;20036;-41
2023/05/23 00:08:26;;;;;;;36.10;20.50;;;13.60;99.90;;;;;;5074152;28;20146;-42
2023/05/23 00:10:51;;;;;;;33.20;21.23;;;13.60;99.90;;;;;;5066947;28;20044;-41
2023/05/23 00:13:17;;;;;;;38.92;21.13;;;13.60;99.90;;;;;;5074012;28;20040;-43
2023/05/23 00:15:44;;;;;;;34.80;19.90;;;13.50;99.90;;;;;;5073403;28;20040;-40
2023/05/23 00:18:10;;;;;;;36.28;18.90;;;13.50;99.90;;;;;;5074661;28;20055;-43
2023/05/23 00:20:39;;;;;;;32.88;19.58;;;13.50;99.90;;;;;;5072845;28;20082;-40
2023/05/23 00:23:06;;;;;;;38.17;20.38;;;13.50;99.90;;;;;;5072715;28;20506;-40
2023/05/23 00:25:35;;;;;;;34.10;19.77;;;13.50;99.90;;;;;;5072718;28;20071;-42
2023/05/23 00:28:02;;;;;;;36.22;19.10;;;13.50;99.90;;;;;;5073896;28;20118;-42
2023/05/23 00:30:29;;;;;;;38.40;17.92;;;13.50;99.90;;;;;;5073641;28;20181;-43
2023/05/23 00:32:55;;;;;;;38.67;18.27;;;13.40;99.90;;;;;;5073855;28;20048;-38
2023/05/23 00:35:22;;;;;;;37.67;18.05;;;13.40;99.90;;;;;;5071749;28;20442;-41
2023/05/23 00:37:51;;;;;;;34.20;18.15;;;13.40;99.90;;;;;;5071950;28;20044;-43
2023/05/23 00:40:17;;;;;;;39.20;17.95;;;13.40;99.90;;;;;;5074234;28;20044;-42
2023/05/23 00:42:43;;;;;;;26.15;17.15;;;13.40;99.90;;;;;;5067149;28;20056;-40
2023/05/23 00:45:11;;;;;;;27.58;16.38;;;13.40;99.90;;;;;;5047565;28;20052;-40
2023/05/23 00:47:40;;;;;;;34.10;16.38;;;13.40;99.90;;;;;;5074028;28;20051;-39
2023/05/23 00:50:08;;;;;;;26.92;16.13;;;13.40;99.90;;;;;;5073872;28;20039;-42
2023/05/23 00:52:34;;;;;;;27.70;16.83;;;13.40;99.90;;;;;;5061352;28;20229;-44
2023/05/23 00:55:00;;;;;;;28.23;15.85;;;13.40;99.90;;;;;;5063198;28;20047;-40
2023/05/23 00:57:27;;;;;;;27.10;15.90;;;13.40;99.90;;;;;;5072022;28;20127;-37
2023/05/23 00:59:53;;;;;;;26.33;16.23;;;13.40;99.90;;;;;;5073386;28;20529;-40
2023/05/23 01:02:20;;;;;;;28.27;16.58;;;13.40;99.90;;;;;;5074355;28;20048;-44
2023/05/23 01:04:53;;;;;;;30.63;15.15;;;13.40;99.90;;;;;;5072089;28;20079;-42
2023/05/23 01:07:21;;;;;;;30.17;15.05;;;13.40;99.90;;;;;;5072720;28;20048;-42
2023/05/23 01:09:47;;;;;;;30.95;15.48;;;13.40;99.90;;;;;;5063439;28;20411;-40
2023/05/23 01:12:28;;;;;;;29.40;14.75;;;13.40;99.90;;;;;;5089708;27;20053;-37
2023/05/23 01:15:02;;;;;;;30.23;15.77;;;13.40;99.90;;;;;;5062214;28;20079;-46
2023/05/23 01:17:35;;;;;;;25.95;15.35;;;13.40;99.90;;;;;;5053010;28;20441;-40
2023/05/23 01:20:11;;;;;;;33.08;15.55;;;13.30;99.90;;;;;;5060075;28;20051;-40
2023/05/23 01:23:00;;;;;;;35.42;17.10;;;13.30;99.90;;;;;;5073160;28;20048;-39
2023/05/23 01:26:07;;;;;;;31.85;14.85;;;13.30;99.90;;;;;;5072465;28;20043;-40
2023/05/23 01:28:39;;;;;;;25.35;14.90;;;13.10;99.90;;;;;;4965126;28;20058;-40
2023/05/23 01:31:09;;;;;;;28.40;14.40;;;13.10;99.90;;;;;;4985651;28;20061;-39
2023/05/23 01:33:36;;;;;;;26.77;14.10;;;13.10;99.90;;;;;;4970162;28;20653;-45
2023/05/23 01:36:03;;;;;;;27.20;14.48;;;13.10;99.90;;;;;;4953988;28;20046;-41
2023/05/23 01:38:28;;;;;;;25.35;13.73;;;13.10;99.90;;;;;;4982189;28;20065;-38
2023/05/23 01:40:54;;;;;;;26.25;13.15;;;13.10;99.90;;;;;;4977386;28;20121;-46
2023/05/23 01:43:21;;;;;;;24.15;13.18;;;13.10;99.90;;;;;;4972427;28;20060;-40
2023/05/23 01:45:47;;;;;;;29.33;14.60;;;13.00;99.90;;;;;;4998497;28;20133;-40
2023/05/23 01:48:15;;;;;;;29.45;14.27;;;13.10;99.90;;;;;;4979895;28;20088;-40
2023/05/23 01:50:45;;;;;;;27.02;14.15;;;13.00;99.90;;;;;;4984006;28;20059;-43
2023/05/23 01:53:12;;;;;;;30.40;15.75;;;13.00;99.90;;;;;;4970553;28;20467;-43
2023/05/23 01:55:40;;;;;;;26.45;14.30;;;13.00;99.90;;;;;;4982645;28;21072;-41
2023/05/23 01:58:06;;;;;;;25.13;13.13;;;13.00;99.90;;;;;;4983001;28;20069;-42
2023/05/23 02:00:31;;;;;;;26.17;13.52;;;12.90;99.90;;;;;;4975636;28;20046;-38
2023/05/23 02:02:58;;;;;;;26.85;13.77;;;12.90;99.90;;;;;;4970780;28;20413;-38
2023/05/23 02:05:23;;;;;;;27.25;13.13;;;12.90;99.90;;;;;;5068190;28;20787;-42
2023/05/23 02:07:49;;;;;;;24.08;12.85;;;12.90;99.90;;;;;;5072602;28;20044;-40
2023/05/23 02:10:15;;;;;;;26.23;12.35;;;12.90;99.90;;;;;;5064167;28;20516;-43
2023/05/23 02:12:40;;;;;;;29.17;13.00;;;12.90;99.90;;;;;;5071686;28;20279;-40
2023/05/23 02:15:07;;;;;;;29.13;13.40;;;12.90;99.90;;;;;;5071592;28;20195;-44
2023/05/23 02:17:33;;;;;;;22.23;12.35;;;12.90;99.90;;;;;;5072776;28;20067;-40
2023/05/23 02:19:58;;;;;;;23.35;12.30;;;13.00;99.90;;;;;;5076041;28;20452;-40
2023/05/23 02:22:24;;;;;;;28.73;11.63;;;12.90;99.90;;;;;;5076957;28;20046;-36
2023/05/23 02:24:50;;;;;;;22.13;11.20;;;12.90;99.90;;;;;;5073554;28;20055;-40
2023/05/23 02:27:17;;;;;;;22.85;10.52;;;12.90;99.90;;;;;;5076491;28;20516;-44
2023/05/23 02:29:42;;;;;;;28.27;12.20;;;12.90;99.90;;;;;;5076329;28;20118;-42
2023/05/23 02:32:08;;;;;;;26.20;11.25;;;12.90;99.90;;;;;;5076624;28;20398;-41
2023/05/23 02:34:33;;;;;;;23.35;11.60;;;13.00;99.90;;;;;;5075487;28;20547;-44
2023/05/23 02:36:59;;;;;;;30.63;12.43;;;13.00;99.90;;;;;;5071353;28;20032;-38
2023/05/23 02:39:26;;;;;;;26.15;11.23;;;13.00;99.90;;;;;;5076121;28;20491;-42
2023/05/23 02:41:51;;;;;;;23.80;11.23;;;12.90;99.90;;;;;;5075145;28;20131;-44
2023/05/23 02:44:18;;;;;;;27.85;13.02;;;12.90;99.90;;;;;;5061560;28;20054;-41
2023/05/23 02:46:44;;;;;;;32.47;14.52;;;12.90;99.90;;;;;;5076322;28;20051;-43
2023/05/23 02:49:10;;;;;;;29.00;12.55;;;12.80;99.90;;;;;;5069999;28;20041;-36
2023/05/23 02:51:36;;;;;;;26.50;13.85;;;12.80;99.90;;;;;;5061994;28;20055;-41
2023/05/23 02:54:02;;;;;;;31.60;12.80;;;12.80;99.90;;;;;;5060721;28;20311;-45
2023/05/23 02:56:28;;;;;;;27.35;11.57;;;12.80;99.90;;;;;;5075956;28;20047;-39
2023/05/23 02:58:53;;;;;;;23.58;11.60;;;12.70;99.90;;;;;;5075573;28;20075;-41
2023/05/23 03:01:19;;;;;;;24.15;11.73;;;12.70;99.90;;;;;;5074957;28;20177;-38
2023/05/23 03:03:45;;;;;;;28.50;12.77;;;12.70;99.90;;;;;;5068378;28;20074;-43
2023/05/23 03:06:13;;;;;;;29.48;12.13;;;12.70;99.90;;;;;;5075288;28;20156;-36
2023/05/23 03:08:40;;;;;;;34.08;11.90;;;12.70;99.90;;;;;;5072388;28;20063;-38
2023/05/23 03:11:06;;;;;;;25.98;12.20;;;12.70;99.90;;;;;;5067729;28;20524;-40
2023/05/23 03:13:33;;;;;;;24.08;10.73;;;12.60;99.90;;;;;;5073741;28;20129;-42
2023/05/23 03:15:59;;;;;;;22.80;10.65;;;12.70;99.90;;;;;;5107756;27;20067;-42
2023/05/23 03:18:24;;;;;;;23.40;11.85;;;12.60;99.90;;;;;;5066614;28;20074;-42
2023/05/23 03:20:50;;;;;;;26.75;10.75;;;12.60;99.90;;;;;;5075212;28;20091;-41
2023/05/23 03:23:16;;;;;;;26.92;10.20;;;12.60;99.90;;;;;;5073393;28;20048;-41
2023/05/23 03:25:42;;;;;;;21.60;9.05;;;12.60;99.90;;;;;;5075535;28;20417;-41
2023/05/23 03:28:08;;;;;;;21.55;10.38;;;12.60;99.90;;;;;;5073701;28;20044;-42
2023/05/23 03:30:33;;;;;;;19.48;8.50;;;12.50;99.90;;;;;;5074028;28;20349;-45
2023/05/23 03:33:00;;;;;;;21.75;8.60;;;12.60;99.90;;;;;;5074728;28;20048;-43
2023/05/23 03:35:26;;;;;;;16.35;8.35;;;12.50;99.90;;;;;;5055224;28;20414;-41
2023/05/23 03:37:52;;;;;;;22.30;8.73;;;12.50;99.90;;;;;;5071223;28;20107;-42
2023/05/23 03:40:17;;;;;;;19.98;8.75;;;12.50;99.90;;;;;;5075139;28;20048;-40
2023/05/23 03:42:43;;;;;;;23.58;8.45;;;12.50;99.90;;;;;;5069496;28;20634;-38
2023/05/23 03:45:09;;;;;;;23.08;8.75;;;12.40;99.90;;;;;;5064854;28;20484;-42
2023/05/23 03:47:35;;;;;;;19.48;8.77;;;12.40;99.90;;;;;;5074757;28;20472;-41
2023/05/23 03:50:00;;;;;;;21.20;9.30;;;12.40;99.90;;;;;;5075302;28;20047;-43
2023/05/23 03:52:26;;;;;;;22.90;9.35;;;12.40;99.90;;;;;;5068557;28;20611;-41
2023/05/23 03:54:53;;;;;;;21.67;9.25;;;12.40;99.90;;;;;;5066524;28;20044;-45
2023/05/23 03:57:18;;;;;;;23.42;10.35;;;12.30;99.90;;;;;;5074521;28;20051;-39
2023/05/23 03:59:44;;;;;;;23.52;8.95;;;12.30;99.90;;;;;;5074687;28;20048;-45
2023/05/23 04:02:10;;;;;;;24.10;9.20;;;12.30;99.90;;;;;;5100412;27;20127;-42
2023/05/23 04:04:35;;;;;;;23.20;9.73;;;12.30;99.90;;;;;;5066853;28;20059;-41
2023/05/23 04:07:01;;;;;;;24.25;9.48;;;12.30;99.90;;;;;;5074177;28;20133;-45
2023/05/23 04:09:27;;;;;;;25.05;8.88;;;12.30;99.90;;;;;;5066198;28;20113;-39
2023/05/23 04:11:52;;;;;;;24.50;8.73;;;12.30;99.90;;;;;;5063901;28;20044;-42
2023/05/23 04:14:21;;;;;;;23.27;8.15;;;12.30;99.90;;;;;;5073743;28;20040;-41
2023/05/23 04:16:47;;;;;;;22.17;7.13;;;12.30;99.90;;;;;;5075200;28;20051;-41
2023/05/23 04:19:12;;;;;;;19.95;8.30;;;12.20;99.90;;;;;;5073781;28;20047;-42
2023/05/23 04:21:38;;;;;;;19.95;7.68;;;12.20;99.90;;;;;;5074488;28;20456;-40
2023/05/23 04:24:04;;;;;;;22.70;7.40;;;12.20;99.90;;;;;;5073520;28;20478;-39
2023/05/23 04:26:30;;;;;;;22.95;7.25;;;12.20;99.90;;;;;;5074729;28;20087;-40
2023/05/23 04:28:56;;;;;;;19.73;8.02;;;12.20;99.90;;;;;;5074194;28;20119;-42
2023/05/23 04:31:21;;;;;;;15.52;6.53;;;12.20;99.90;;;;;;5074389;28;20043;-39
2023/05/23 04:33:48;;;;;;;24.42;7.75;;;12.20;99.90;;;;;;5072712;28;20082;-43
2023/05/23 04:36:13;;;;;;;16.92;6.68;;;12.10;99.90;;;;;;5070607;28;20094;-42
2023/05/23 04:38:39;;;;;;;22.85;7.28;;;12.10;99.90;;;;;;5074181;28;20036;-36
2023/05/23 04:41:06;;;;;;;16.67;6.78;;;12.10;99.90;;;;;;5073654;28;20044;-42
2023/05/23 04:43:41;;;;;;;17.33;7.03;;;12.10;99.90;;;;;;5059926;28;20040;-39
2023/05/23 04:46:10;;;;;;;17.10;7.40;;;12.10;99.90;;;;;;5060998;28;20500;-40
2023/05/23 04:48:37;;;;;;;21.50;6.93;;;12.10;99.90;;;;;;5073707;28;20431;-40
2023/05/23 04:51:10;;;;;;;18.70;7.90;;;12.00;99.90;;;;;;5074160;28;20048;-36
2023/05/23 04:53:36;;;;;;;20.35;7.45;;;12.00;99.90;;;;;;5073163;28;20059;-45
2023/05/23 04:56:01;;;;;;;17.48;9.23;;;11.90;99.90;;;;;;5073577;28;20459;-40
2023/05/23 04:58:27;;;;;;;17.02;8.52;;;11.90;99.90;;;;;;5065655;28;21027;-41
2023/05/23 05:00:53;;;;;;;18.05;8.00;;;11.90;99.90;;;;;;5072669;28;20044;-39
2023/05/23 05:03:18;;;;;;;20.02;8.60;;;11.80;99.90;;;;;;5071453;28;20052;-38
2023/05/23 05:05:44;;;;;;;18.73;8.13;;;11.90;99.90;;;;;;5062363;28;20360;-45
2023/05/23 05:08:10;;;;;;;18.00;8.52;;;11.80;99.90;;;;;;5071048;28;20047;-41
2023/05/23 05:10:37;;;;;;;20.48;8.93;;;11.70;99.90;;;;;;5064315;28;20503;-41
2023/05/23 05:13:02;;;;;;;19.85;8.52;;;11.70;99.90;;;;;;5070647;28;20044;-44
2023/05/23 05:15:28;;;;;;;23.33;8.77;;;11.70;99.90;;;;;;5073385;28;20040;-35
2023/05/23 05:17:54;;;;;;;19.52;9.70;;;11.70;99.90;;;;;;5064570;28;20036;-41
2023/05/23 05:20:20;;;;;;;21.52;9.60;;;11.60;99.90;;;;;;5073932;28;20196;-42
2023/05/23 05:22:46;;;;;;;21.63;8.00;;;11.70;99.90;;;;;;5073852;28;20052;-43
2023/05/23 05:25:12;;;;;;;21.63;8.70;;;11.60;99.90;;;;;;5072873;28;20086;-38
2023/05/23 05:27:38;;;;;;;22.13;8.60;;;11.70;99.90;;;;;;5071653;28;20055;-43
2023/05/23 05:30:09;;;;;;;17.85;7.72;;;11.70;99.90;;;;;;5060724;28;20037;-36
2023/05/23 05:32:34;;;;;;;17.20;8.07;;;11.70;99.90;;;;;;5068685;28;20059;-37
2023/05/23 05:35:01;;;;;;;14.18;7.40;;;11.80;99.90;;;;;;5062438;28;20056;-40
2023/05/23 05:37:26;;;;;;;19.00;6.95;;;11.80;99.90;;;;;;5065434;28;20380;-38
2023/05/23 05:39:53;;;;;;;20.83;7.07;;;11.80;99.90;;;;;;5070790;28;20063;-41
2023/05/23 05:42:22;;;;;;;17.60;6.80;;;11.80;99.90;;;;;;5064493;28;20310;-36
2023/05/23 05:44:48;;;;;;;14.32;6.65;;;11.80;99.90;;;;;;5065538;28;20054;-38
2023/05/23 05:47:14;;;;;;;13.82;6.90;;;11.90;99.90;;;;;;5061122;28;20770;-43
2023/05/23 05:49:40;;;;;;;13.38;6.72;;;11.90;99.90;;;;;;5063520;28;20136;-38
2023/05/23 05:52:07;;;;;;;20.23;6.55;;;11.80;99.90;;;;;;5073200;28;20836;-45
2023/05/23 05:54:32;;;;;;;26.38;7.20;;;11.80;99.90;;;;;;5073350;28;20051;-39
2023/05/23 05:56:58;;;;;;;20.00;6.20;;;11.80;99.90;;;;;;5077188;28;20597;-38
2023/05/23 05:59:24;;;;;;;17.67;6.80;;;11.70;99.90;;;;;;5077627;28;20044;-40
2023/05/23 06:01:50;;;;;;;14.02;5.55;;;11.70;99.90;;;;;;5077175;28;20513;-42
2023/05/23 06:04:16;;;;;;;16.75;5.43;;;11.70;99.90;;;;;;5066447;28;20055;-39
2023/05/23 06:06:42;;;;;;;18.77;5.60;;;11.60;99.90;;;;;;5075340;28;20454;-39
2023/05/23 06:09:09;;;;;;;16.58;5.65;;;11.70;99.90;;;;;;5072249;28;20041;-39
2023/05/23 06:11:38;;;;;;;16.45;5.00;;;11.50;99.90;;;;;;5073323;28;20091;-37
2023/05/23 06:14:04;;;;;;;12.70;4.55;;;11.60;99.90;;;;;;5075701;28;20415;-36
2023/05/23 06:16:29;;;;;;;16.88;4.82;;;11.60;99.90;;;;;;5076847;28;20331;-38
2023/05/23 06:18:55;;;;;;;13.52;4.70;;;11.80;99.90;;;;;;5076677;28;20475;-37
2023/05/23 06:21:21;;;;;;;15.32;4.47;;;13.10;99.90;;;;;;5076581;28;20044;-41
2023/05/23 06:23:46;;;;;;;15.90;4.93;;;13.90;99.90;;;;;;5075587;28;20051;-39
2023/05/23 06:26:12;;;;;;;19.48;4.82;;;14.00;99.90;;;;;;5075486;28;20488;-42
2023/05/23 06:28:40;;;;;;;20.13;5.82;;;13.70;99.90;;;;;;5076601;28;20036;-41
2023/05/23 06:31:08;;;;;;;33.22;6.57;;;13.40;99.90;;;;;;5076690;28;20032;-43
2023/05/23 06:33:34;;;;;;;17.35;4.97;;;13.30;99.90;;;;;;5075735;28;20514;-40
2023/05/23 06:36:00;;;;;;;25.20;6.57;;;13.30;99.90;;;;;;5072112;28;20119;-39
2023/05/23 06:38:32;;;;;;;17.95;5.00;;;13.30;99.90;;;;;;5076841;28;20087;-37
2023/05/23 06:40:58;;;;;;;19.87;5.67;;;13.40;99.90;;;;;;5076847;28;20047;-42
2023/05/23 06:43:24;;;;;;;17.02;5.15;;;13.50;99.90;;;;;;5063899;28;20623;-41
2023/05/23 06:45:50;;;;;;;20.33;5.40;;;13.40;99.90;;;;;;5074982;28;20044;-40
2023/05/23 06:48:16;;;;;;;20.83;5.28;;;13.50;99.90;;;;;;5074893;28;20044;-42
2023/05/23 06:50:42;;;;;;;15.60;4.75;;;13.50;99.90;;;;;;5078392;28;20042;-37
2023/05/23 06:53:07;;;;;;;22.98;5.88;;;13.90;99.90;;;;;;5084938;28;20042;-42
2023/05/23 06:55:33;;;;;;;20.63;5.65;;;14.50;99.90;;;;;;5072086;28;20080;-43
2023/05/23 06:57:59;;;;;;;85.22;9.57;;;14.70;99.90;;;;;;5063952;28;20445;-43
2023/05/23 07:00:25;;;;;;;31.63;6.25;;;14.60;99.90;;;;;;5075064;28;20407;-41
2023/05/23 07:02:51;;;;;;;28.30;6.55;;;14.50;99.90;;;;;;5074344;28;20048;-44
2023/05/23 07:05:17;;;;;;;20.05;5.40;;;14.50;99.90;;;;;;5071951;28;20529;-37
2023/05/23 07:07:42;;;;;;;19.95;5.25;;;14.40;99.90;;;;;;5076131;28;20479;-40
2023/05/23 07:10:09;;;;;;;21.13;5.10;;;14.20;99.90;;;;;;5071226;28;20496;-42
2023/05/23 07:12:35;;;;;;;25.50;5.95;;;13.90;99.90;;;;;;5075746;28;20658;-41
2023/05/23 07:15:01;;;;;;;19.25;5.05;;;13.70;99.90;;;;;;5074696;28;20433;-38
2023/05/23 07:17:28;;;;;;;25.45;5.70;;;13.40;99.90;;;;;;5066622;28;20451;-37
2023/05/23 07:19:54;;;;;;;21.08;4.75;;;13.20;99.90;;;;;;5075526;28;20146;-39
2023/05/23 07:22:20;;;;;;;21.58;5.32;;;13.20;99.90;;;;;;5075675;28;20452;-40
2023/05/23 07:24:46;;;;;;;24.92;5.93;;;13.00;99.90;;;;;;5074721;28;20048;-40
2023/05/23 07:27:12;;;;;;;21.10;4.78;;;13.00;99.90;;;;;;5075532;28;20051;-37
2023/05/23 07:29:37;;;;;;;20.77;5.53;;;12.90;99.90;;;;;;5075999;28;20407;-41
2023/05/23 07:32:04;;;;;;;21.27;5.13;;;12.90;99.90;;;;;;5075497;28;20468;-37
2023/05/23 07:34:30;;;;;;;20.90;5.82;;;13.00;99.90;;;;;;5074587;28;20187;-40
2023/05/23 07:36:55;;;;;;;28.90;5.93;;;13.00;99.90;;;;;;5069429;28;20052;-43
2023/05/23 07:39:23;;;;;;;23.48;6.22;;;13.10;99.90;;;;;;5075383;28;20040;-42
2023/05/23 07:41:49;;;;;;;20.40;5.47;;;13.20;99.90;;;;;;5072684;28;20051;-36
2023/05/23 07:44:17;;;;;;;15.93;5.32;;;13.30;99.90;;;;;;5061309;28;20127;-43
2023/05/23 07:46:42;;;;;;;20.98;5.40;;;13.40;99.90;;;;;;5060280;28;20044;-37
2023/05/23 07:49:08;;;;;;;21.75;4.93;;;13.60;99.90;;;;;;5073434;28;20036;-42
2023/05/23 07:51:34;;;;;;;22.38;5.32;;;13.90;99.90;;;;;;5073066;28;20514;-43
2023/05/23 07:53:59;;;;;;;29.02;5.82;;;14.00;99.90;;;;;;5063317;28;20044;-36
2023/05/23 07:56:25;;;;;;;18.70;5.40;;;14.00;99.90;;;;;;5074759;28;20285;-36
2023/05/23 07:58:51;;;;;;;20.52;5.05;;;14.50;99.90;;;;;;5074608;28;20246;-43
2023/05/23 08:01:17;;;;;;;18.38;5.88;;;15.20;99.90;;;;;;5075007;28;20040;-42
2023/05/23 08:03:43;;;;;;;23.40;5.72;;;15.60;99.90;;;;;;5074247;28;20498;-41
2023/05/23 08:06:09;;;;;;;23.08;6.63;;;15.70;99.90;;;;;;5073147;28;20121;-36
2023/05/23 08:08:35;;;;;;;20.27;5.30;;;15.50;99.90;;;;;;5073583;28;20510;-41
2023/05/23 08:11:01;;;;;;;22.73;6.07;;;15.50;99.90;;;;;;5055659;28;20055;-39
2023/05/23 08:13:27;;;;;;;28.92;5.15;;;15.60;99.90;;;;;;5072243;28;20036;-39
2023/05/23 08:15:53;;;;;;;31.35;6.25;;;15.70;99.90;;;;;;5073405;28;20664;-43
2023/05/23 08:18:18;;;;;;;23.38;5.70;;;16.00;99.90;;;;;;5072559;28;20063;-38
2023/05/23 08:20:44;;;;;;;15.25;4.93;;;16.00;99.90;;;;;;5073072;28;20443;-42
2023/05/23 08:23:11;;;;;;;19.73;5.82;;;15.90;99.90;;;;;;5072899;28;20046;-40
2023/05/23 08:25:37;;;;;;;20.00;5.40;;;15.80;99.90;;;;;;5074221;28;20040;-40
2023/05/23 08:28:03;;;;;;;43.75;7.40;;;16.00;99.90;;;;;;5074036;28;20043;-41
2023/05/23 08:30:29;;;;;;;24.90;4.88;;;16.20;99.90;;;;;;5074748;28;20043;-45
2023/05/23 08:32:56;;;;;;;21.38;5.88;;;16.30;99.90;;;;;;5073514;28;20054;-38
2023/05/23 08:35:23;;;;;;;18.70;5.10;;;16.10;99.90;;;;;;5073561;28;20044;-41
2023/05/23 08:37:49;;;;;;;20.67;4.75;;;16.20;99.90;;;;;;5069759;28;20092;-41
2023/05/23 08:40:20;;;;;;;19.50;5.18;;;15.90;99.90;;;;;;5066829;28;20040;-39
2023/05/23 08:42:47;;;;;;;16.60;4.70;;;16.00;99.90;;;;;;5064610;28;20789;-37
2023/05/23 08:45:14;;;;;;;16.13;4.85;;;16.00;99.90;;;;;;5074472;28;20400;-40
2023/05/23 08:47:45;;;;;;;20.50;5.78;;;16.00;99.90;;;;;;5070997;28;20442;-40
2023/05/23 08:50:13;;;;;;;19.67;4.50;;;16.00;99.90;;;;;;5074200;28;20403;-42
2023/05/23 08:52:58;;;;;;;23.85;4.78;;;16.10;99.90;;;;;;5073737;28;20036;-45
2023/05/23 08:55:27;;;;;;;23.20;5.82;;;15.70;99.90;;;;;;5075505;28;20053;-43
2023/05/23 08:57:54;;;;;;;16.83;5.50;;;15.60;99.90;;;;;;5076548;28;20076;-39
2023/05/23 09:00:21;;;;;;;16.67;5.13;;;15.80;99.90;;;;;;5070201;28;20469;-40
2023/05/23 09:02:47;;;;;;;17.20;5.25;;;15.80;99.90;;;;;;5079805;28;20039;-41
2023/05/23 09:05:13;;;;;;;19.20;5.75;;;16.10;99.90;;;;;;5079054;28;20043;-44
2023/05/23 09:07:39;;;;;;;16.73;4.45;;;16.40;99.90;;;;;;5061232;28;20056;-41
2023/05/23 09:10:07;;;;;;;20.85;5.30;;;16.60;99.90;;;;;;5059200;28;20594;-43
2023/05/23 09:12:36;;;;;;;22.75;5.13;;;16.80;99.90;;;;;;5065158;28;20414;-40
2023/05/23 09:15:08;;;;;;;13.27;4.40;;;17.10;99.90;;;;;;5073137;28;20515;-41
2023/05/23 09:17:35;;;;;;;20.63;4.93;;;17.20;99.90;;;;;;5066905;28;20846;-39
2023/05/23 09:20:09;;;;;;;15.98;4.28;;;17.00;99.90;;;;;;5072615;28;20380;-41
2023/05/23 09:22:35;;;;;;;19.88;4.93;;;17.40;99.90;;;;;;5072664;28;20129;-43
2023/05/23 09:25:01;;;;;;;17.38;4.88;;;17.30;99.90;;;;;;5071740;28;20495;-39
2023/05/23 09:27:26;;;;;;;14.27;5.13;;;17.50;99.90;;;;;;5073174;28;20218;-40
2023/05/23 09:29:52;;;;;;;24.42;6.15;;;17.50;99.90;;;;;;5076652;28;20355;-38
2023/05/23 09:32:19;;;;;;;22.23;5.78;;;16.60;99.90;;;;;;5077265;28;20173;-42
2023/05/23 09:34:55;;;;;;;17.13;4.90;;;16.50;99.90;;;;;;5076883;28;20058;-44
2023/05/23 09:37:23;;;;;;;18.13;4.97;;;16.30;99.90;;;;;;5072625;28;20052;-42
2023/05/23 09:39:49;;;;;;;23.70;5.35;;;16.10;99.90;;;;;;5070763;28;20051;-40
2023/05/23 09:42:22;;;;;;;15.63;4.38;;;16.10;99.90;;;;;;5063975;28;20117;-43
2023/05/23 09:44:49;;;;;;;12.55;4.50;;;16.20;99.90;;;;;;5066565;28;20067;-39
2023/05/23 09:47:17;;;;;;;16.23;4.55;;;16.30;99.90;;;;;;5077156;28;20040;-44
2023/05/23 09:49:45;;;;;;;29.52;5.30;;;16.80;99.90;;;;;;5077725;28;20126;-40
2023/05/23 09:52:11;;;;;;;23.23;5.63;;;16.80;99.90;;;;;;5077240;28;20040;-43
2023/05/23 09:54:37;;;;;;;13.88;4.65;;;16.40;99.90;;;;;;5076598;28;20056;-38
2023/05/23 09:57:05;;;;;;;21.02;5.70;;;16.40;99.90;;;;;;5072611;28;20032;-41
2023/05/23 09:59:36;;;;;;;21.38;5.38;;;16.60;99.90;;;;;;5077723;28;20044;-40
2023/05/23 10:02:05;;;;;;;17.35;5.45;;;16.50;99.90;;;;;;5074769;28;20044;-39
2023/05/23 10:04:33;;;;;;;12.15;4.07;;;16.70;99.90;;;;;;5067422;28;20446;-40
2023/05/23 10:07:26;;;;;;;16.10;4.75;;;16.50;99.90;;;;;;5076652;28;20160;-38
2023/05/23 10:10:00;;;;;;;18.40;4.88;;;16.60;99.90;;;;;;5065363;28;20488;-41
2023/05/23 10:12:41;;;;;;;19.85;4.40;;;16.30;99.90;;;;;;5076550;28;20155;-37
2023/05/23 10:15:09;;;;;;;11.25;4.30;;;16.20;99.90;;;;;;5077557;28;20047;-41
2023/05/23 10:17:38;;;;;;;16.05;5.05;;;16.40;99.90;;;;;;5077290;28;20070;-40
2023/05/23 10:20:09;;;;;;;26.48;6.10;;;16.40;99.90;;;;;;5075635;28;20048;-38
2023/05/23 10:22:39;;;;;;;19.13;4.22;;;15.90;99.90;;;;;;5075458;28;20044;-39
2023/05/23 10:25:06;;;;;;;19.13;4.72;;;16.00;99.90;;;;;;5077539;28;20158;-44
2023/05/23 10:27:32;;;;;;;18.30;5.00;;;16.20;99.90;;;;;;5077228;28;20063;-40
2023/05/23 10:30:01;;;;;;;24.13;4.90;;;16.20;99.90;;;;;;5075456;28;20844;-44
2023/05/23 10:32:28;;;;;;;19.27;4.82;;;16.20;99.90;;;;;;5075890;28;20040;-38
2023/05/23 10:35:32;;;;;;;18.17;4.55;;;16.50;99.90;;;;;;5074905;28;20048;-39
2023/05/23 10:38:33;;;;;;;20.75;4.65;;;16.80;99.90;;;;;;5072586;28;20159;-40
2023/05/23 10:41:04;;;;;;;22.45;6.00;;;16.80;99.90;;;;;;5063688;28;20139;-38
2023/05/23 10:43:36;;;;;;;19.25;5.45;;;16.40;99.90;;;;;;5095504;27;20049;-40
2023/05/23 10:46:02;;;;;;;21.05;5.65;;;16.40;99.90;;;;;;5063253;28;20052;-42
2023/05/23 10:48:28;;;;;;;20.42;4.93;;;16.20;99.90;;;;;;5072671;28;20040;-42
2023/05/23 10:51:07;;;;;;;17.17;5.57;;;16.30;99.90;;;;;;5068666;28;20095;-39
2023/05/23 10:53:38;;;;;;;15.95;4.35;;;16.10;99.90;;;;;;5077908;28;20036;-40
2023/05/23 10:56:08;;;;;;;14.50;4.63;;;16.00;99.90;;;;;;5086682;28;20455;-40
2023/05/23 10:58:37;;;;;;;14.25;4.57;;;16.20;99.90;;;;;;5079407;28;20459;-40
2023/05/23 11:01:07;;;;;;;17.70;4.30;;;16.60;99.90;;;;;;5086486;27;20480;-37
2023/05/23 11:03:45;;;;;;;21.33;4.88;;;16.40;99.90;;;;;;5082131;28;20052;-44
2023/05/23 11:06:37;;;;;;;15.77;5.20;;;15.90;99.90;;;;;;5070219;28;20086;-42
2023/05/23 11:09:20;;;;;;;15.68;4.65;;;16.20;99.90;;;;;;5071891;28;20480;-41
2023/05/23 11:12:05;;;;;;;;;;;16.60;99.90;;;;;;5076595;28;20345;-39
2023/05/23 11:14:36;;;;;;;12.60;4.40;;;16.90;99.90;;;;;;5075486;28;19919;-42
2023/05/23 11:17:11;;;;;;;24.40;5.53;;;16.60;99.90;;;;;;5076491;28;20066;-43
2023/05/23 11:19:38;;;;;;;14.85;4.40;;;15.80;99.90;;;;;;5074917;28;20048;-39
2023/05/23 11:22:08;;;;;;;17.60;4.80;;;16.10;99.90;;;;;;5076783;28;20044;-38
2023/05/23 11:24:53;;;;;;;14.35;5.00;;;16.30;99.90;;;;;;5075130;28;20036;-37
2023/05/23 11:27:35;;;;;;;12.45;3.97;;;16.60;99.90;;;;;;5057449;28;20051;-38
2023/05/23 11:30:07;;;;;;;14.02;4.45;;;16.50;99.90;;;;;;5070012;28;20113;-47
2023/05/23 11:32:34;;;;;;;14.32;3.60;;;16.40;99.90;;;;;;5080022;28;20094;-41
2023/05/23 11:35:04;;;;;;;11.25;3.90;;;16.40;99.90;;;;;;5067759;28;20072;-41
2023/05/23 11:37:31;;;;;;;14.02;4.57;;;16.40;99.90;;;;;;5064537;28;20399;-37
2023/05/23 11:39:57;;;;;;;20.15;5.25;;;16.40;99.90;;;;;;5067749;28;20074;-39
2023/05/23 11:42:23;;;;;;;16.55;5.25;;;16.20;99.90;;;;;;5067917;28;20044;-42
2023/05/23 11:44:50;;;;;;;15.75;5.07;;;16.20;99.90;;;;;;5067923;28;20093;-48
2023/05/23 11:47:17;;;;;;;16.70;6.35;;;16.20;99.90;;;;;;5062779;28;20459;-39
2023/05/23 11:49:47;;;;;;;21.65;5.22;;;16.10;99.90;;;;;;5069211;28;20044;-38
2023/05/23 11:52:14;;;;;;;17.52;5.28;;;16.20;99.90;;;;;;5069247;28;20548;-43
2023/05/23 11:54:42;;;;;;;14.10;4.65;;;16.10;99.90;;;;;;5066190;28;20956;-42
2023/05/23 11:57:09;;;;;;;20.98;5.28;;;16.70;99.90;;;;;;5070985;28;20044;-42
2023/05/23 11:59:35;;;;;;;15.52;5.55;;;16.90;99.90;;;;;;5070388;28;20415;-37
2023/05/23 12:02:02;;;;;;;15.63;4.38;;;16.90;99.90;;;;;;5068853;28;20044;-37
2023/05/23 12:04:28;;;;;;;18.63;5.07;;;17.00;99.90;;;;;;5071908;28;20047;-38
2023/05/23 12:06:53;;;;;;;18.33;4.50;;;16.80;99.90;;;;;;5069522;28;20040;-41
2023/05/23 12:09:19;;;;;;;15.00;4.07;;;16.60;99.90;;;;;;5070550;28;20043;-40
2023/05/23 12:11:45;;;;;;;13.90;3.70;;;16.50;99.90;;;;;;5068363;28;20046;-39
2023/05/23 12:14:15;;;;;;;14.77;3.97;;;16.40;99.90;;;;;;5073347;28;20398;-37
2023/05/23 12:16:45;;;;;;;19.63;5.00;;;16.30;99.90;;;;;;5104549;27;20497;-41
2023/05/23 12:19:11;;;;;;;28.17;5.50;;;16.70;99.90;;;;;;5065501;28;20050;-37
2023/05/23 12:21:44;;;;;;;13.43;4.63;;;17.00;99.90;;;;;;5071370;28;20059;-42
2023/05/23 12:24:20;;;;;;;19.55;4.90;;;17.30;99.90;;;;;;5057661;28;20112;-39
2023/05/23 12:26:51;;;;;;;17.40;4.30;;;17.50;99.90;;;;;;5067116;28;20041;-40
2023/05/23 12:29:26;;;;;;;15.65;5.28;;;17.20;99.90;;;;;;5064543;28;20428;-43
2023/05/23 12:31:52;;;;;;;15.85;4.45;;;16.50;99.90;;;;;;5064804;28;20044;-39
2023/05/23 12:34:20;;;;;;;19.13;4.85;;;16.50;99.90;;;;;;5067857;28;20407;-43
2023/05/23 12:36:47;;;;;;;22.23;5.13;;;16.20;99.90;;;;;;5071270;28;20507;-39